Time;durP1;ratioP1;P1;durP2;ratioP2;P2;SDS_P1;SDS_P2;PMS_P1;PMS_P2;Temp;Humidity;BMP_temperature;BMP_pressure;BME280_temperature;BME280_humidity;BME280_pressure;Samples;Min_cycle;Max_cycle;Signal;HPM_P1;HPM_P2
2022/08/30 00:03:00;;;;;;;;;;;15.80;99.90;;;;;;5042361;28;19975;-90
2022/08/30 00:05:29;;;;;;;;;;;15.80;99.90;;;;;;5024191;28;19921;-89
2022/08/30 00:07:55;;;;;;;;;;;15.90;99.90;;;;;;5042136;28;19921;-92
2022/08/30 00:10:20;;;;;;;;;;;15.90;99.90;;;;;;5040177;28;19970;-90
2022/08/30 00:12:47;;;;;;;;;;;15.90;99.90;;;;;;5037041;28;19944;-90
2022/08/30 00:15:13;;;;;;;;;;;15.90;99.90;;;;;;5036606;28;19960;-91
2022/08/30 00:17:39;;;;;;;;;;;15.80;99.90;;;;;;5019579;28;19979;-91
2022/08/30 00:20:05;;;;;;;;;;;15.90;99.90;;;;;;5019467;28;20376;-91
2022/08/30 00:22:31;;;;;;;;;;;15.90;99.90;;;;;;5019285;28;20405;-89
2022/08/30 00:24:59;;;;;;;;;;;15.90;99.90;;;;;;5034971;28;19928;-92
2022/08/30 00:27:28;;;;;;;;;;;15.80;99.90;;;;;;5019388;28;19928;-92
2022/08/30 00:29:54;;;;;;;;;;;15.70;99.90;;;;;;5018927;28;20373;-90
2022/08/30 00:32:20;;;;;;;;;;;15.80;99.90;;;;;;5019336;28;19928;-91
2022/08/30 00:34:46;;;;;;;;;;;15.70;99.90;;;;;;5036071;28;19925;-92
2022/08/30 00:37:12;;;;;;;;;;;15.70;99.90;;;;;;5018606;28;19921;-88
2022/08/30 00:39:37;;;;;;;;;;;15.70;99.90;;;;;;5034387;28;19927;-92
2022/08/30 00:42:03;;;;;;;;;;;15.70;99.90;;;;;;5034236;28;19921;-92
2022/08/30 00:44:28;;;;;;;;;;;15.70;99.90;;;;;;5035129;28;19921;-91
2022/08/30 00:46:54;;;;;;;;;;;15.70;99.90;;;;;;5003307;28;19921;-90
2022/08/30 00:49:20;;;;;;;;;;;15.80;99.90;;;;;;5002188;28;20309;-90
2022/08/30 00:51:45;;;;;;;;;;;15.70;99.90;;;;;;5035291;28;19924;-90
2022/08/30 00:54:11;;;;;;;;;;;15.80;99.90;;;;;;5019189;28;19925;-91
2022/08/30 00:56:36;;;;;;;;;;;15.80;99.90;;;;;;5018613;28;19927;-91
2022/08/30 00:59:02;;;;;;;;;;;15.70;99.90;;;;;;5018515;28;19920;-89
2022/08/30 01:01:28;;;;;;;;;;;15.70;99.90;;;;;;5019218;28;19928;-92
2022/08/30 01:03:54;;;;;;;;;;;15.80;99.90;;;;;;5022938;28;19921;-89
2022/08/30 01:06:19;;;;;;;;;;;15.80;99.90;;;;;;5019085;28;19954;-92
2022/08/30 01:08:45;;;;;;;;;;;15.80;99.90;;;;;;5018269;28;19925;-90
2022/08/30 01:11:11;;;;;;;;;;;15.80;99.90;;;;;;5034352;28;20010;-91
2022/08/30 01:13:37;;;;;;;;;;;15.70;99.90;;;;;;5034758;28;19921;-91
2022/08/30 01:16:02;;;;;;;;;;;15.70;99.90;;;;;;5035705;28;19921;-87
2022/08/30 01:18:28;;;;;;;;;;;15.60;99.90;;;;;;5025502;28;19921;-90
2022/08/30 01:21:12;;;;;;;;;;;15.60;99.90;;;;;;5035323;28;19943;-91
2022/08/30 01:23:39;;;;;;;;;;;15.60;99.90;;;;;;5055583;28;19988;-86
2022/08/30 01:26:04;;;;;;;;;;;15.60;99.90;;;;;;5028142;28;19920;-91
2022/08/30 01:28:30;;;;;;;;;;;15.50;99.90;;;;;;5034975;28;19921;-86
2022/08/30 01:30:55;;;;;;;;;;;15.50;99.90;;;;;;5035469;28;19921;-91
2022/08/30 01:33:21;;;;;;;;;;;15.40;99.90;;;;;;5035604;28;20333;-91
2022/08/30 01:35:48;;;;;;;;;;;15.40;99.90;;;;;;5034233;28;20352;-90
2022/08/30 01:38:14;;;;;;;;;;;15.30;99.90;;;;;;5017868;28;19921;-89
2022/08/30 01:40:40;;;;;;;;;;;15.40;99.90;;;;;;5034468;28;19995;-91
2022/08/30 01:43:06;;;;;;;;;;;15.30;99.90;;;;;;5034438;28;19972;-89
2022/08/30 01:45:31;;;;;;;;;;;15.20;99.90;;;;;;5017067;28;19925;-91
2022/08/30 01:47:57;;;;;;;;;;;15.10;99.90;;;;;;5034135;28;19921;-91
2022/08/30 01:50:22;;;;;;;;;;;15.20;99.90;;;;;;5034980;28;20277;-90
2022/08/30 01:52:48;;;;;;;;;;;15.20;99.90;;;;;;5035581;28;19921;-90
2022/08/30 01:55:14;;;;;;;;;;;15.00;99.90;;;;;;5034088;28;19968;-89
2022/08/30 01:57:40;;;;;;;;;;;15.00;99.90;;;;;;5033793;28;19951;-89
2022/08/30 02:00:06;;;;;;;;;;;14.90;99.90;;;;;;5033564;28;20380;-91
2022/08/30 02:02:31;;;;;;;;;;;14.90;99.90;;;;;;5017128;28;19921;-89
2022/08/30 02:04:57;;;;;;;;;;;14.90;99.90;;;;;;5035650;28;19928;-89
2022/08/30 02:07:22;;;;;;;;;;;14.80;99.90;;;;;;5035027;28;20017;-91
2022/08/30 02:09:48;;;;;;;;;;;14.80;99.90;;;;;;5018392;28;19927;-90
2022/08/30 02:12:14;;;;;;;;;;;14.80;99.90;;;;;;5038289;28;20066;-90
2022/08/30 02:14:39;;;;;;;;;;;14.90;99.90;;;;;;5036268;28;19921;-90
2022/08/30 02:17:06;;;;;;;;;;;14.80;99.90;;;;;;5037571;28;20328;-89
2022/08/30 02:19:31;;;;;;;;;;;14.80;99.90;;;;;;5021554;28;19959;-90
2022/08/30 02:21:57;;;;;;;;;;;14.80;99.90;;;;;;5036915;28;19921;-89
2022/08/30 02:24:22;;;;;;;;;;;14.80;99.90;;;;;;5018453;28;19935;-89
2022/08/30 02:26:48;;;;;;;;;;;14.80;99.90;;;;;;5017398;28;19928;-89
2022/08/30 02:29:13;;;;;;;;;;;14.70;99.90;;;;;;5017078;28;20320;-90
2022/08/30 02:31:39;;;;;;;;;;;14.70;99.90;;;;;;5017116;28;19928;-89
2022/08/30 02:34:05;;;;;;;;;;;14.70;99.90;;;;;;5016775;28;19974;-91
2022/08/30 02:36:30;;;;;;;;;;;14.60;99.90;;;;;;5033880;28;20010;-91
2022/08/30 02:38:56;;;;;;;;;;;14.70;99.90;;;;;;5045319;28;19921;-89
2022/08/30 02:41:22;;;;;;;;;;;14.60;99.90;;;;;;5019970;28;19921;-90
2022/08/30 02:43:48;;;;;;;;;;;14.60;99.90;;;;;;5003183;28;19920;-90
2022/08/30 02:46:14;;;;;;;;;;;14.60;99.90;;;;;;5036319;28;19921;-90
2022/08/30 02:48:39;;;;;;;;;;;14.60;99.90;;;;;;5036334;28;19924;-86
2022/08/30 02:51:05;;;;;;;;;;;14.60;99.90;;;;;;5036374;28;19928;-92
2022/08/30 02:53:31;;;;;;;;;;;14.50;99.90;;;;;;5020007;28;19921;-90
2022/08/30 02:55:57;;;;;;;;;;;14.40;99.90;;;;;;5019624;28;20364;-89
2022/08/30 02:58:23;;;;;;;;;;;14.40;99.90;;;;;;5036504;28;19975;-90
2022/08/30 03:00:48;;;;;;;;;;;14.30;99.90;;;;;;5036277;28;20360;-89
2022/08/30 03:03:14;;;;;;;;;;;14.20;99.90;;;;;;5036959;28;19921;-89
2022/08/30 03:05:40;;;;;;;;;;;14.20;99.90;;;;;;5056666;28;20264;-90
2022/08/30 03:08:05;;;;;;;;;;;14.20;99.90;;;;;;5046985;28;19925;-91
2022/08/30 03:10:31;;;;;;;;;;;14.20;99.90;;;;;;5040984;28;19920;-91
2022/08/30 03:12:56;;;;;;;;;;;14.20;99.90;;;;;;5040322;28;19927;-90
2022/08/30 03:15:24;;;;;;;;;;;14.10;99.90;;;;;;5057557;28;19924;-91
2022/08/30 03:17:50;;;;;;;;;;;14.10;99.90;;;;;;5044558;28;19992;-91
2022/08/30 03:20:16;;;;;;;;;;;14.00;99.90;;;;;;5020197;28;20030;-89
2022/08/30 03:22:41;;;;;;;;;;;13.90;99.90;;;;;;5047520;28;19921;-89
2022/08/30 03:25:07;;;;;;;;;;;13.90;99.90;;;;;;5024053;28;19921;-89
2022/08/30 03:27:32;;;;;;;;;;;13.80;99.90;;;;;;5024379;28;19924;-89
2022/08/30 03:29:58;;;;;;;;;;;13.80;99.90;;;;;;5023674;28;19960;-89
2022/08/30 03:32:23;;;;;;;;;;;13.70;99.90;;;;;;5068008;28;19944;-86
2022/08/30 03:34:49;;;;;;;;;;;13.70;99.90;;;;;;5044483;28;19992;-89
2022/08/30 03:37:14;;;;;;;;;;;13.70;99.90;;;;;;5025425;28;19924;-90
2022/08/30 03:39:40;;;;;;;;;;;13.60;99.90;;;;;;5023389;28;19982;-90
2022/08/30 03:42:06;;;;;;;;;;;13.60;99.90;;;;;;5024481;28;19921;-89
2022/08/30 03:44:31;;;;;;;;;;;13.60;99.90;;;;;;5040212;28;20403;-89
2022/08/30 03:46:57;;;;;;;;;;;13.50;99.90;;;;;;5023577;28;20016;-90
2022/08/30 03:49:23;;;;;;;;;;;13.50;99.90;;;;;;5024688;28;19929;-90
2022/08/30 03:51:49;;;;;;;;;;;13.50;99.90;;;;;;5007460;28;19921;-90
2022/08/30 03:54:14;;;;;;;;;;;13.50;99.90;;;;;;5024036;28;19928;-90
2022/08/30 03:56:40;;;;;;;;;;;13.40;99.90;;;;;;5039491;28;20011;-90
2022/08/30 03:59:05;;;;;;;;;;;13.40;99.90;;;;;;5039285;28;19966;-91
2022/08/30 04:01:31;;;;;;;;;;;13.30;99.90;;;;;;5024155;28;19921;-89
2022/08/30 04:03:56;;;;;;;;;;;13.20;99.90;;;;;;5023127;28;19927;-90
2022/08/30 04:06:22;;;;;;;;;;;13.20;99.90;;;;;;5040529;28;19951;-90
2022/08/30 04:08:48;;;;;;;;;;;13.10;99.90;;;;;;5044477;28;19925;-86
2022/08/30 04:11:15;;;;;;;;;;;13.10;99.90;;;;;;5009261;28;19928;-91
2022/08/30 04:13:41;;;;;;;;;;;13.10;99.90;;;;;;5038823;28;19921;-89
2022/08/30 04:16:06;;;;;;;;;;;13.00;99.90;;;;;;5022620;28;20032;-90
2022/08/30 04:18:33;;;;;;;;;;;13.00;99.90;;;;;;5021233;28;20023;-91
2022/08/30 04:20:59;;;;;;;;;;;12.90;99.90;;;;;;5022290;28;19921;-91
2022/08/30 04:23:24;;;;;;;;;;;12.90;99.90;;;;;;5038639;28;19986;-91
2022/08/30 04:25:50;;;;;;;;;;;13.00;99.90;;;;;;5038516;28;19920;-87
2022/08/30 04:28:15;;;;;;;;;;;12.90;99.90;;;;;;5038488;28;19931;-90
2022/08/30 04:30:41;;;;;;;;;;;12.80;99.90;;;;;;5038639;28;19920;-90
2022/08/30 04:33:07;;;;;;;;;;;12.80;99.90;;;;;;5022353;28;19921;-90
2022/08/30 04:35:33;;;;;;;;;;;12.70;99.90;;;;;;5038696;28;19943;-90
2022/08/30 04:37:58;;;;;;;;;;;12.70;99.90;;;;;;5038215;28;20272;-89
2022/08/30 04:40:24;;;;;;;;;;;12.70;99.90;;;;;;5022610;28;19921;-88
2022/08/30 04:42:52;;;;;;;;;;;12.70;99.90;;;;;;5021881;28;19920;-89
2022/08/30 04:45:18;;;;;;;;;;;12.60;99.90;;;;;;5038622;28;20384;-89
2022/08/30 04:47:44;;;;;;;;;;;12.60;99.90;;;;;;5021665;28;19968;-88
2022/08/30 04:50:10;;;;;;;;;;;12.60;99.90;;;;;;5038105;28;19920;-88
2022/08/30 04:52:36;;;;;;;;;;;12.60;99.90;;;;;;5037945;28;19931;-89
2022/08/30 04:55:01;;;;;;;;;;;12.60;99.90;;;;;;5038022;28;20011;-88
2022/08/30 04:57:27;;;;;;;;;;;12.50;99.90;;;;;;5037776;28;19921;-89
2022/08/30 04:59:53;;;;;;;;;;;12.50;99.90;;;;;;5021995;28;19927;-87
2022/08/30 05:02:19;;;;;;;;;;;12.50;99.90;;;;;;5038071;28;19928;-89
2022/08/30 05:07:29;;;;;;;;;;;12.50;99.90;;;;;;5023884;28;20331;-88
2022/08/30 05:09:54;;;;;;;;;;;12.50;99.90;;;;;;5038513;28;19921;-85
2022/08/30 05:12:20;;;;;;;;;;;12.50;99.90;;;;;;5037705;28;19920;-89
2022/08/30 05:14:45;;;;;;;;;;;12.50;99.90;;;;;;5055307;28;19924;-88
2022/08/30 05:17:11;;;;;;;;;;;12.50;99.90;;;;;;5038361;28;20066;-88
2022/08/30 05:19:37;;;;;;;;;;;12.50;99.90;;;;;;5037781;28;19982;-88
2022/08/30 05:22:02;;;;;;;;;;;12.40;99.90;;;;;;5021719;28;19928;-91
2022/08/30 05:24:28;;;;;;;;;;;12.50;99.90;;;;;;5038676;28;19920;-92
2022/08/30 05:26:53;;;;;;;;;;;12.60;99.90;;;;;;5021595;28;20368;-93
2022/08/30 05:29:19;;;;;;;;;;;12.90;99.90;;;;;;5038444;28;19995;-92
2022/08/30 05:31:45;;;;;;;;;;;13.40;99.90;;;;;;5039352;28;20392;-90
2022/08/30 05:34:10;;;;;;;;;;;14.00;99.90;;;;;;5025595;28;19968;-90
2022/08/30 05:36:36;;;;;;;;;;;14.60;99.90;;;;;;5005967;28;19986;-91
2022/08/30 05:39:02;;;;;;;;;;;15.10;99.90;;;;;;5022705;28;19921;-91
2022/08/30 05:41:27;;;;;;;;;;;15.80;99.90;;;;;;5048242;28;19931;-89
2022/08/30 05:43:54;;;;;;;;;;;16.10;99.90;;;;;;5056532;28;20015;-90
2022/08/30 05:46:20;;;;;;;;;;;16.80;99.90;;;;;;5039310;28;19921;-90
2022/08/30 05:48:46;;;;;;;;;;;17.00;99.90;;;;;;5042126;28;19931;-91
2022/08/30 05:51:12;;;;;;;;;;;17.70;99.90;;;;;;5024074;28;20307;-91
2022/08/30 05:53:38;;;;;;;;;;;18.70;99.90;;;;;;5006490;28;19975;-91
2022/08/30 05:56:04;;;;;;;;;;;19.30;99.90;;;;;;5021229;28;19924;-91
2022/08/30 05:58:30;;;;;;;;;;;19.70;99.90;;;;;;5037193;28;19997;-90
2022/08/30 06:00:56;;;;;;;;;;;19.90;99.90;;;;;;5005248;28;20340;-92
2022/08/30 06:03:21;;;;;;;;;;;19.90;99.90;;;;;;5021073;28;19955;-91
2022/08/30 06:05:47;;;;;;;;;;;20.50;99.90;;;;;;5020584;28;19921;-92
2022/08/30 06:08:12;;;;;;;;;;;20.80;99.90;;;;;;5038082;28;19973;-91
2022/08/30 06:10:38;;;;;;;;;;;21.10;99.90;;;;;;5039898;28;19920;-91
2022/08/30 06:13:03;;;;;;;;;;;20.80;99.90;;;;;;5022324;28;19920;-88
2022/08/30 06:15:29;;;;;;;;;;;20.90;99.90;;;;;;5021812;28;19927;-90
2022/08/30 06:17:55;;;;;;;;;;;21.00;99.90;;;;;;5037532;28;19928;-91
2022/08/30 06:20:20;;;;;;;;;;;21.30;99.90;;;;;;5037788;28;19927;-91
2022/08/30 06:22:46;;;;;;;;;;;21.40;99.90;;;;;;5037766;28;19921;-91
2022/08/30 06:25:11;;;;;;;;;;;21.40;99.90;;;;;;5037020;28;19920;-89
2022/08/30 06:27:37;;;;;;;;;;;21.70;99.90;;;;;;5004435;28;19943;-90
2022/08/30 06:30:06;;;;;;;;;;;21.40;99.90;;;;;;5037239;28;19920;-90
2022/08/30 06:32:32;;;;;;;;;;;21.60;99.90;;;;;;5021189;28;19920;-88
2022/08/30 06:34:58;;;;;;;;;;;22.10;99.90;;;;;;5054247;28;19927;-89
2022/08/30 06:37:23;;;;;;;;;;;22.60;99.90;;;;;;5054534;28;20352;-91
2022/08/30 06:39:49;;;;;;;;;;;22.30;99.90;;;;;;5035792;28;19944;-89
2022/08/30 06:42:14;;;;;;;;;;;21.90;99.90;;;;;;5036193;28;20003;-90
2022/08/30 06:44:40;;;;;;;;;;;22.90;99.90;;;;;;5036587;28;20062;-90
2022/08/30 06:47:06;;;;;;;;;;;22.90;99.90;;;;;;5036586;28;19954;-91
2022/08/30 06:49:32;;;;;;;;;;;23.10;99.90;;;;;;5054116;28;20382;-90
2022/08/30 06:51:57;;;;;;;;;;;23.10;99.90;;;;;;5036741;28;20011;-90
2022/08/30 06:54:23;;;;;;;;;;;23.80;99.90;;;;;;5039983;28;19980;-90
2022/08/30 06:56:48;;;;;;;;;;;23.90;99.90;;;;;;5042087;28;19928;-90
2022/08/30 06:59:14;;;;;;;;;;;23.70;99.90;;;;;;5019606;28;19972;-91
2022/08/30 07:01:39;;;;;;;;;;;23.80;99.90;;;;;;5037014;28;19924;-91
2022/08/30 07:04:05;;;;;;;;;;;23.30;99.90;;;;;;5020178;28;19928;-90
2022/08/30 07:06:31;;;;;;;;;;;23.60;99.90;;;;;;5036040;28;19943;-90
2022/08/30 07:08:56;;;;;;;;;;;23.70;99.90;;;;;;5055368;28;19921;-90
2022/08/30 07:11:26;;;;;;;;;;;24.00;99.90;;;;;;5041241;28;19920;-89
2022/08/30 07:13:51;;;;;;;;;;;24.10;99.90;;;;;;5046378;28;19905;-88
2022/08/30 07:16:17;;;;;;;;;;;23.90;99.90;;;;;;5028758;28;19927;-90
2022/08/30 07:18:55;;;;;;;;;;;24.40;99.90;;;;;;5045867;28;19921;-91
2022/08/30 07:21:25;;;;;;;;;;;24.20;99.90;;;;;;5057192;28;20003;-89
2022/08/30 07:23:50;;;;;;;;;;;24.40;99.90;;;;;;5037070;28;19924;-92
2022/08/30 07:26:17;;;;;;;;;;;24.40;99.90;;;;;;5037104;28;19943;-89
2022/08/30 07:28:43;;;;;;;;;;;24.20;99.90;;;;;;5054193;28;19920;-90
2022/08/30 07:31:09;;;;;;;;;;;24.10;99.90;;;;;;5054195;28;20332;-89
2022/08/30 07:33:34;;;;;;;;;;;24.40;99.90;;;;;;5036062;28;19932;-91
2022/08/30 07:36:00;;;;;;;;;;;25.20;99.90;;;;;;5036206;28;19928;-90
2022/08/30 07:38:26;;;;;;;;;;;24.70;99.90;;;;;;5036385;28;20024;-89
2022/08/30 07:40:51;;;;;;;;;;;25.20;99.50;;;;;;5019579;28;20352;-91
2022/08/30 07:43:17;;;;;;;;;;;24.80;99.40;;;;;;5019754;28;19978;-89
2022/08/30 07:45:42;;;;;;;;;;;25.00;98.60;;;;;;5036193;28;19920;-90
2022/08/30 07:48:10;;;;;;;;;;;25.00;98.60;;;;;;5037139;28;19921;-89
2022/08/30 07:50:36;;;;;;;;;;;24.50;98.60;;;;;;5073303;28;19960;-90
2022/08/30 07:53:01;;;;;;;;;;;24.60;99.20;;;;;;5050059;28;19920;-91
2022/08/30 07:55:27;;;;;;;;;;;24.80;98.40;;;;;;5024130;28;20427;-89
2022/08/30 07:57:53;;;;;;;;;;;24.80;98.30;;;;;;5040332;28;20015;-89
2022/08/30 08:00:19;;;;;;;;;;;24.70;98.30;;;;;;5039722;28;20327;-90
2022/08/30 08:02:44;;;;;;;;;;;24.80;98.20;;;;;;5023926;28;19920;-89
2022/08/30 08:05:10;;;;;;;;;;;24.30;98.40;;;;;;5039189;28;19987;-90
2022/08/30 08:07:35;;;;;;;;;;;24.60;98.00;;;;;;5039527;28;19924;-90
2022/08/30 08:10:01;;;;;;;;;;;24.30;97.80;;;;;;5056720;28;19966;-90
2022/08/30 08:12:27;;;;;;;;;;;25.00;97.80;;;;;;5024911;28;19920;-90
2022/08/30 08:14:52;;;;;;;;;;;25.00;97.30;;;;;;5041704;28;19920;-90
2022/08/30 08:17:18;;;;;;;;;;;24.80;97.00;;;;;;5022651;28;19920;-87
2022/08/30 08:19:44;;;;;;;;;;;24.20;97.60;;;;;;5039894;28;19921;-87
2022/08/30 08:22:09;;;;;;;;;;;24.20;97.60;;;;;;5022766;28;20262;-90
2022/08/30 08:24:35;;;;;;;;;;;24.00;97.80;;;;;;5022985;28;19931;-93
2022/08/30 08:27:01;;;;;;;;;;;24.30;98.00;;;;;;5040372;28;20280;-93
2022/08/30 08:29:26;;;;;;;;;;;24.50;97.10;;;;;;5023162;28;19921;-91
2022/08/30 08:31:52;;;;;;;;;;;24.80;97.20;;;;;;5039983;28;19921;-93
2022/08/30 08:34:22;;;;;;;;;;;25.20;96.30;;;;;;5040426;28;19924;-92
2022/08/30 08:36:47;;;;;;;;;;;24.50;96.70;;;;;;5039428;28;19921;-92
2022/08/30 08:39:13;;;;;;;;;;;24.20;96.60;;;;;;5016959;28;19960;-91
2022/08/30 08:41:57;;;;;;;;;;;24.80;96.30;;;;;;5042677;28;19927;-90
2022/08/30 08:44:42;;;;;;;;;;;24.80;96.40;;;;;;5038809;28;20010;-92
2022/08/30 08:47:15;;;;;;;;;;;25.00;96.50;;;;;;5038331;28;19921;-90
2022/08/30 08:49:41;;;;;;;;;;;25.30;96.60;;;;;;5022572;28;20260;-89
2022/08/30 08:54:52;;;;;;;;;;;25.00;96.40;;;;;;5039289;28;19921;-88
2022/08/30 08:57:17;;;;;;;;;;;25.90;95.70;;;;;;5038081;28;19999;-86
2022/08/30 08:59:43;;;;;;;;;;;25.70;95.40;;;;;;5055777;28;19951;-87
2022/08/30 09:02:21;;;;;;;;;;;25.20;95.90;;;;;;5037992;28;19979;-88
2022/08/30 09:04:47;;;;;;;;;;;25.50;95.50;;;;;;5037667;28;19921;-89
2022/08/30 09:07:25;;;;;;;;;;;25.80;95.50;;;;;;5038972;28;20008;-89
2022/08/30 09:09:51;;;;;;;;;;;25.80;95.20;;;;;;5021954;28;19927;-89
2022/08/30 09:12:16;;;;;;;;;;;25.80;95.60;;;;;;5037902;28;20288;-90
2022/08/30 09:14:43;;;;;;;;;;;26.20;95.20;;;;;;5040659;28;19971;-89
2022/08/30 09:17:09;;;;;;;;;;;26.50;94.70;;;;;;5037886;28;19943;-87
2022/08/30 09:19:40;;;;;;;;;;;26.00;94.90;;;;;;5005357;28;19924;-89
2022/08/30 09:22:25;;;;;;;;;;;25.80;95.40;;;;;;5022059;28;19924;-89
2022/08/30 09:24:52;;;;;;;;;;;25.40;95.30;;;;;;5037645;28;19978;-89
2022/08/30 09:27:18;;;;;;;;;;;25.50;95.70;;;;;;5021056;28;20327;-87
2022/08/30 09:29:57;;;;;;;;;;;25.70;95.50;;;;;;5037065;28;19920;-88
2022/08/30 09:32:23;;;;;;;;;;;26.40;95.40;;;;;;5037674;28;19931;-87
2022/08/30 09:34:49;;;;;;;;;;;24.80;95.50;;;;;;5021117;28;19921;-90
2022/08/30 09:37:25;;;;;;;;;;;25.20;95.80;;;;;;5037367;28;19927;-88
2022/08/30 09:39:51;;;;;;;;;;;25.40;95.80;;;;;;5036895;28;19920;-89
2022/08/30 09:42:25;;;;;;;;;;;25.80;95.20;;;;;;5037314;28;20004;-87
2022/08/30 09:44:51;;;;;;;;;;;26.30;95.00;;;;;;5037573;28;19982;-88
2022/08/30 09:47:18;;;;;;;;;;;25.40;95.00;;;;;;5020815;28;19921;-92
2022/08/30 09:49:44;;;;;;;;;;;24.60;95.10;;;;;;5004653;28;20007;-93
2022/08/30 09:52:25;;;;;;;;;;;24.40;95.70;;;;;;5037491;28;19966;-90
2022/08/30 09:55:01;;;;;;;;;;;24.60;95.10;;;;;;5021636;28;19920;-85
2022/08/30 09:57:29;;;;;;;;;;;24.10;96.20;;;;;;5038014;28;20015;-88
2022/08/30 10:00:06;;;;;;;;;;;24.60;96.10;;;;;;5058056;28;19943;-86
2022/08/30 10:02:44;;;;;;;;;;;24.80;95.70;;;;;;5027350;28;20307;-92
2022/08/30 10:05:30;;;;;;;;;;;24.90;95.60;;;;;;5037211;28;19974;-93
2022/08/30 10:08:02;;;;;;;;;;;25.00;94.90;;;;;;5053610;28;19924;-88
2022/08/30 10:10:29;;;;;;;;;;;23.70;95.40;;;;;;5037452;28;19921;-88
2022/08/30 10:12:58;;;;;;;;;;;23.90;96.10;;;;;;5020920;28;19929;-89
2022/08/30 10:15:24;;;;;;;;;;;24.30;95.80;;;;;;5021282;28;19927;-90
2022/08/30 10:18:09;;;;;;;;;;;25.00;95.20;;;;;;5021027;28;20342;-88
2022/08/30 10:20:34;;;;;;;;;;;24.40;95.20;;;;;;5036729;28;19921;-89
2022/08/30 10:23:15;;;;;;;;;;;24.50;95.00;;;;;;5020840;28;19921;-90
2022/08/30 10:25:42;;;;;;;;;;;24.80;95.60;;;;;;5020076;28;19921;-88
2022/08/30 10:28:23;;;;;;;;;;;24.80;95.90;;;;;;5020961;28;20369;-87
2022/08/30 10:30:51;;;;;;;;;;;24.30;95.40;;;;;;5036362;28;20364;-89
2022/08/30 10:33:18;;;;;;;;;;;23.90;95.80;;;;;;5020720;28;19921;-88
2022/08/30 10:35:45;;;;;;;;;;;24.60;95.60;;;;;;5037347;28;19921;-89
2022/08/30 10:38:13;;;;;;;;;;;25.00;95.70;;;;;;5019414;28;19966;-89
2022/08/30 10:43:30;;;;;;;;;;;25.00;95.40;;;;;;5023081;28;19921;-90
2022/08/30 10:45:57;;;;;;;;;;;25.40;94.40;;;;;;5036342;28;19925;-89
2022/08/30 10:48:24;;;;;;;;;;;24.80;94.80;;;;;;5020095;28;19924;-89
2022/08/30 10:50:53;;;;;;;;;;;25.20;94.40;;;;;;5003307;28;19921;-88
2022/08/30 10:53:21;;;;;;;;;;;25.10;93.90;;;;;;5020190;28;19935;-88
2022/08/30 10:55:59;;;;;;;;;;;24.40;94.60;;;;;;5023923;28;19921;-87
2022/08/30 10:58:25;;;;;;;;;;;24.50;95.00;;;;;;5021813;28;19970;-88
2022/08/30 11:00:59;;;;;;;;;;;24.80;95.00;;;;;;5020000;28;19921;-88
2022/08/30 11:03:51;;;;;;;;;;;24.60;94.70;;;;;;5019363;28;19928;-88
2022/08/30 11:06:19;;;;;;;;;;;24.40;95.00;;;;;;4990452;28;19921;-92
2022/08/30 11:08:52;;;;;;;;;;;24.80;94.00;;;;;;5020878;28;20356;-91
2022/08/30 11:11:28;;;;;;;;;;;24.80;93.80;;;;;;5020438;28;20324;-91
2022/08/30 11:13:53;;;;;;;;;;;23.90;95.00;;;;;;5019877;28;19920;-89
2022/08/30 11:16:19;;;;;;;;;;;23.30;96.00;;;;;;5021176;28;19921;-87
2022/08/30 11:18:45;;;;;;;;;;;23.80;95.70;;;;;;5028109;28;19925;-87
2022/08/30 11:21:23;;;;;;;;;;;23.40;96.60;;;;;;5022507;28;19927;-87
2022/08/30 11:23:56;;;;;;;;;;;23.60;96.80;;;;;;5035717;28;19921;-87
2022/08/30 11:26:56;;;;;;;;;;;23.40;96.70;;;;;;5020383;28;20261;-89
2022/08/30 11:29:31;;;;;;;;;;;23.30;96.50;;;;;;4997601;28;19982;-89
2022/08/30 11:31:57;;;;;;;;;;;23.10;97.10;;;;;;5039815;28;19920;-88
2022/08/30 11:34:44;;;;;;;;;;;22.80;97.60;;;;;;5024223;28;20431;-88
2022/08/30 11:37:11;;;;;;;;;;;22.90;98.00;;;;;;5025884;28;19925;-89
2022/08/30 11:39:46;;;;;;;;;;;22.80;97.60;;;;;;5024325;28;19963;-96
2022/08/30 11:42:23;;;;;;;;;;;22.90;97.10;;;;;;5024652;28;19920;-92
2022/08/30 11:44:48;;;;;;;;;;;23.00;97.10;;;;;;5024492;28;19921;-90
2022/08/30 11:47:43;;;;;;;;;;;23.10;97.40;;;;;;5044694;28;19990;-91
2022/08/30 11:50:28;;;;;;;;;;;23.20;97.00;;;;;;5025925;28;19920;-89
2022/08/30 11:52:56;;;;;;;;;;;23.20;96.50;;;;;;5042085;28;19975;-91
2022/08/30 11:55:40;;;;;;;;;;;23.00;97.50;;;;;;5024830;28;19920;-90
2022/08/30 11:58:06;;;;;;;;;;;22.80;97.10;;;;;;5007618;28;19928;-88
2022/08/30 12:00:35;;;;;;;;;;;22.90;98.30;;;;;;5022754;28;20050;-86
2022/08/30 12:03:06;;;;;;;;;;;22.80;97.90;;;;;;5023761;28;19928;-88
2022/08/30 12:05:41;;;;;;;;;;;24.60;97.60;;;;;;5007675;28;19920;-89
2022/08/30 12:08:10;;;;;;;;;;;23.60;97.10;;;;;;5031795;28;19935;-88
2022/08/30 12:10:44;;;;;;;;;;;23.40;96.90;;;;;;5041816;28;19913;-88
2022/08/30 12:13:28;;;;;;;;;;;23.10;96.70;;;;;;5023798;28;20414;-89
2022/08/30 12:15:55;;;;;;;;;;;22.80;97.10;;;;;;5025371;28;19920;-92
2022/08/30 12:18:30;;;;;;;;;;;23.10;97.10;;;;;;5027591;28;19921;-90
2022/08/30 12:20:57;;;;;;;;;;;23.20;97.10;;;;;;5008618;28;19931;-86
2022/08/30 12:23:39;;;;;;;;;;;23.30;97.20;;;;;;5023757;28;19925;-85
2022/08/30 12:26:11;;;;;;;;;;;23.30;97.20;;;;;;5022596;28;20063;-86
2022/08/30 12:28:36;;;;;;;;;;;23.20;97.20;;;;;;5006143;28;20490;-86
2022/08/30 12:31:06;;;;;;;;;;;23.30;97.50;;;;;;5039076;28;20019;-87
2022/08/30 12:33:33;;;;;;;;;;;23.30;97.50;;;;;;5039425;28;19927;-87
2022/08/30 12:36:19;;;;;;;;;;;23.40;96.80;;;;;;5006210;28;19921;-91
2022/08/30 12:38:44;;;;;;;;;;;23.10;97.50;;;;;;5035372;28;20335;-89
2022/08/30 12:41:15;;;;;;;;;;;23.30;97.40;;;;;;5022521;28;20116;-89
2022/08/30 12:43:47;;;;;;;;;;;23.10;96.90;;;;;;5022998;28;20264;-88
2022/08/30 12:46:14;;;;;;;;;;;22.80;97.40;;;;;;5005409;28;19920;-88
2022/08/30 12:48:40;;;;;;;;;;;23.20;97.10;;;;;;5022494;28;20007;-89
2022/08/30 12:51:06;;;;;;;;;;;23.30;96.40;;;;;;5006906;28;20394;-86
2022/08/30 12:53:34;;;;;;;;;;;23.60;96.80;;;;;;5021506;28;20365;-87
2022/08/30 12:56:08;;;;;;;;;;;23.80;96.10;;;;;;5055515;28;20249;-88
2022/08/30 12:58:33;;;;;;;;;;;23.90;96.50;;;;;;5005655;28;19927;-88
2022/08/30 13:01:24;;;;;;;;;;;23.70;97.20;;;;;;5021462;28;19921;-87
2022/08/30 13:03:54;;;;;;;;;;;24.10;97.00;;;;;;5038582;28;19921;-87
2022/08/30 13:06:35;;;;;;;;;;;23.60;97.00;;;;;;5022034;28;19920;-87
2022/08/30 13:09:01;;;;;;;;;;;23.70;97.20;;;;;;5027962;28;19927;-87
2022/08/30 13:11:27;;;;;;;;;;;23.40;98.20;;;;;;5012405;28;19976;-88
2022/08/30 13:13:53;;;;;;;;;;;23.10;97.90;;;;;;5021825;28;19927;-88
2022/08/30 13:16:19;;;;;;;;;;;23.00;98.00;;;;;;5021470;28;20288;-88
2022/08/30 13:18:47;;;;;;;;;;;23.10;98.50;;;;;;5021147;28;19920;-87
2022/08/30 13:21:20;;;;;;;;;;;22.80;98.10;;;;;;5038686;28;19920;-87
2022/08/30 13:23:46;;;;;;;;;;;22.70;98.30;;;;;;5021487;28;19927;-87
2022/08/30 13:26:11;;;;;;;;;;;23.00;98.30;;;;;;5055186;28;19921;-87
2022/08/30 13:28:48;;;;;;;;;;;23.00;98.60;;;;;;5021532;28;20108;-88
2022/08/30 13:31:14;;;;;;;;;;;23.50;97.10;;;;;;5004556;28;19928;-86
2022/08/30 13:33:39;;;;;;;;;;;23.30;97.70;;;;;;5021006;28;19920;-83
2022/08/30 13:36:07;;;;;;;;;;;23.20;98.00;;;;;;5036977;28;20127;-87
2022/08/30 13:38:33;;;;;;;;;;;23.50;98.40;;;;;;5020841;28;19921;-89
2022/08/30 13:40:59;;;;;;;;;;;23.20;98.40;;;;;;5004427;28;19920;-89
2022/08/30 13:43:27;;;;;;;;;;;23.60;98.60;;;;;;5021939;28;19960;-89
2022/08/30 13:46:01;;;;;;;;;;;23.60;98.10;;;;;;5020505;28;20388;-88
2022/08/30 13:48:27;;;;;;;;;;;23.90;97.70;;;;;;5021469;28;19936;-89
2022/08/30 13:50:54;;;;;;;;;;;23.80;98.10;;;;;;5020652;28;19921;-88
2022/08/30 13:53:19;;;;;;;;;;;23.60;97.70;;;;;;5036828;28;19928;-87
2022/08/30 13:55:47;;;;;;;;;;;23.70;98.30;;;;;;5037124;28;19925;-89
2022/08/30 13:58:15;;;;;;;;;;;22.70;98.30;;;;;;5037703;28;20241;-89
2022/08/30 14:00:41;;;;;;;;;;;24.60;98.60;;;;;;5004867;28;20324;-89
2022/08/30 14:03:07;;;;;;;;;;;23.80;97.20;;;;;;5004459;28;19971;-86
2022/08/30 14:05:34;;;;;;;;;;;24.00;97.20;;;;;;5020845;28;19920;-88
2022/08/30 14:08:02;;;;;;;;;;;23.70;97.30;;;;;;5020321;28;19956;-88
2022/08/30 14:10:28;;;;;;;;;;;23.60;97.20;;;;;;5019844;28;20057;-89
2022/08/30 14:12:53;;;;;;;;;;;23.50;97.40;;;;;;5003678;28;19974;-89
2022/08/30 14:15:19;;;;;;;;;;;23.70;97.90;;;;;;5004228;28;19927;-89
2022/08/30 14:17:45;;;;;;;;;;;23.70;97.90;;;;;;5004242;28;19928;-87
2022/08/30 14:20:10;;;;;;;;;;;23.60;98.30;;;;;;5014359;28;19916;-90
2022/08/30 14:22:38;;;;;;;;;;;23.60;97.80;;;;;;5035519;28;19928;-88
2022/08/30 14:25:07;;;;;;;;;;;23.50;97.90;;;;;;5008556;28;19921;-87
2022/08/30 14:27:33;;;;;;;;;;;23.10;98.10;;;;;;5008196;28;20415;-87
2022/08/30 14:30:01;;;;;;;;;;;23.00;98.70;;;;;;5019754;28;19921;-87